createdAt,value
2022-09-28T00:00:16.316Z,8.03
2022-09-28T00:05:15.077Z,8.03
2022-09-28T00:10:22.007Z,7.97
2022-09-28T00:15:15.071Z,7.91
2022-09-28T00:20:22.165Z,7.82
2022-09-28T00:25:16.617Z,7.77
2022-09-28T00:30:16.674Z,7.78
2022-09-28T00:35:14.727Z,7.76
2022-09-28T00:40:14.716Z,7.78
2022-09-28T00:45:15.852Z,7.78
2022-09-28T00:50:24.705Z,7.8
2022-09-28T00:55:17.511Z,7.78
2022-09-28T01:00:16.571Z,7.75
2022-09-28T01:05:15.374Z,7.73
2022-09-28T01:10:14.508Z,7.66
2022-09-28T01:15:15.375Z,7.61
2022-09-28T01:20:49.874Z,7.6
2022-09-28T01:25:15.994Z,7.56
2022-09-28T01:30:15.891Z,7.53
2022-09-28T01:35:18.861Z,7.53
2022-09-28T01:40:18.145Z,7.46
2022-09-28T01:45:18.518Z,7.42
2022-09-28T01:50:22.379Z,7.4
2022-09-28T01:55:16.297Z,7.31
2022-09-28T02:00:17.677Z,7.25
2022-09-28T02:05:18.228Z,7.18
2022-09-28T02:10:18.155Z,7.11
2022-09-28T02:15:16.320Z,7.05
2022-09-28T02:20:19.299Z,7
2022-09-28T02:25:18.625Z,6.89
2022-09-28T02:30:14.988Z,6.85
2022-09-28T02:35:16.691Z,6.76
2022-09-28T02:40:21.720Z,6.73
2022-09-28T02:45:19.777Z,6.73
2022-09-28T02:50:27.811Z,6.62
2022-09-28T02:55:26.805Z,6.56
2022-09-28T03:00:20.321Z,6.52
2022-09-28T03:05:19.399Z,6.49
2022-09-28T03:10:18.390Z,6.43
2022-09-28T03:15:17.259Z,6.37
2022-09-28T03:20:19.861Z,6.33
2022-09-28T03:25:15.291Z,6.35
2022-09-28T03:30:15.771Z,6.34
2022-09-28T03:35:14.904Z,6.34
2022-09-28T03:40:14.865Z,6.34
2022-09-28T03:45:19.251Z,6.3
2022-09-28T03:50:18.935Z,6.28
2022-09-28T03:55:14.686Z,6.31
2022-09-28T04:00:14.995Z,6.33
2022-09-28T04:05:14.614Z,6.3
2022-09-28T04:10:14.580Z,6.34
2022-09-28T04:15:15.602Z,6.35
2022-09-28T04:20:18.989Z,6.4
2022-09-28T04:25:15.681Z,6.37
2022-09-28T04:30:15.661Z,6.33
2022-09-28T04:35:15.649Z,6.32
2022-09-28T04:40:15.010Z,6.31
2022-09-28T04:45:15.154Z,6.32
2022-09-28T04:50:20.602Z,6.3
2022-09-28T04:55:20.456Z,6.29
2022-09-28T05:00:18.596Z,6.27
2022-09-28T05:05:16.638Z,6.2
2022-09-28T05:10:14.680Z,6.12
2022-09-28T05:15:18.518Z,6.06
2022-09-28T05:20:21.929Z,6.03
2022-09-28T05:25:14.885Z,5.96
2022-09-28T05:30:17.508Z,5.93
2022-09-28T05:35:16.587Z,5.93
2022-09-28T05:40:18.871Z,5.88
2022-09-28T05:45:17.880Z,5.83
2022-09-28T05:50:26.617Z,5.82
2022-09-28T05:55:17.640Z,5.82
2022-09-28T06:00:17.015Z,5.78
2022-09-28T06:05:20.289Z,5.8
2022-09-28T06:10:14.685Z,5.87
2022-09-28T06:15:22.311Z,6.02
2022-09-28T06:20:24.162Z,6.19
2022-09-28T06:25:21.466Z,6.4
2022-09-28T06:30:16.468Z,6.56
2022-09-28T06:35:16.740Z,6.75
2022-09-28T06:40:14.636Z,6.91
2022-09-28T06:45:17.391Z,7.12
2022-09-28T06:50:25.157Z,7.33
2022-09-28T06:55:14.801Z,7.45
2022-09-28T07:00:17.672Z,7.65
2022-09-28T07:05:20.661Z,7.9
2022-09-28T07:10:18.888Z,8.13
2022-09-28T07:15:14.864Z,8.36
2022-09-28T07:20:31.945Z,8.59
2022-09-28T07:25:14.651Z,8.81
2022-09-28T07:30:23.520Z,9.13
2022-09-28T07:35:18.832Z,9.5
2022-09-28T07:40:26.684Z,9.85
2022-09-28T07:45:15.080Z,10.26
2022-09-28T07:50:30.358Z,10.72
2022-09-28T07:55:15.030Z,11.14
2022-09-28T08:00:15.474Z,11.55
2022-09-28T08:05:15.513Z,11.96
2022-09-28T08:10:15.267Z,12.36
2022-09-28T08:15:17.318Z,12.82
2022-09-28T08:20:49.446Z,13.26
2022-09-28T08:25:19.227Z,13.69
2022-09-28T08:30:15.250Z,14.18
2022-09-28T08:35:15.586Z,14.73
2022-09-28T08:40:19.299Z,15.16
2022-09-28T08:45:21.651Z,15.71
2022-09-28T08:50:30.725Z,16.14
2022-09-28T08:55:18.961Z,16.48
2022-09-28T09:00:19.559Z,16.69
2022-09-28T09:05:19.868Z,17.04
2022-09-28T09:10:31.628Z,17.32
2022-09-28T09:15:24.959Z,17.74
2022-09-28T09:20:20.201Z,17.98
2022-09-28T09:25:22.035Z,18.39
2022-09-28T09:30:19.477Z,18.37
2022-09-28T09:35:25.149Z,18.37
2022-09-28T09:40:31.997Z,18.67
2022-09-28T09:45:28.582Z,18.47
2022-09-28T09:50:29.724Z,17.95
2022-09-28T09:55:19.173Z,17.64
2022-09-28T10:00:19.470Z,17.29
2022-09-28T10:05:27.683Z,17.01
2022-09-28T10:10:27.272Z,17.08
2022-09-28T10:15:22.363Z,17.25
2022-09-28T10:20:25.328Z,17.68
2022-09-28T10:25:19.400Z,17.51
2022-09-28T10:30:23.129Z,17.1
2022-09-28T10:35:27.068Z,16.79
2022-09-28T10:40:28.080Z,16.61
2022-09-28T10:45:23.576Z,16.73
2022-09-28T10:50:24.860Z,17.31
2022-09-28T10:55:28.187Z,17.89
2022-09-28T11:00:27.174Z,18.36
2022-09-28T11:05:23.654Z,18.24
2022-09-28T11:10:22.711Z,17.84
2022-09-28T11:15:22.061Z,17.49
2022-09-28T11:20:28.620Z,17.17
2022-09-28T11:25:24.255Z,16.94
2022-09-28T11:30:25.166Z,16.82
2022-09-28T11:35:21.636Z,16.81
2022-09-28T11:40:22.276Z,16.7
2022-09-28T11:45:27.543Z,16.5
2022-09-28T11:50:24.350Z,16.32
2022-09-28T11:55:21.196Z,16.18
2022-09-28T12:00:22.383Z,16.09
2022-09-28T12:05:25.358Z,15.93
2022-09-28T12:10:19.466Z,15.8
2022-09-28T12:15:21.453Z,15.66
2022-09-28T12:20:19.169Z,15.51
2022-09-28T12:25:24.132Z,15.35
2022-09-28T12:30:22.865Z,15.22
2022-09-28T12:35:24.578Z,15.1
2022-09-28T12:40:27.506Z,15.02
2022-09-28T12:45:21.599Z,15.1
2022-09-28T12:50:38.253Z,15.23
2022-09-28T12:55:25.695Z,15.34
2022-09-28T13:00:18.843Z,15.29
2022-09-28T13:05:25.091Z,15.17
2022-09-28T13:10:23.453Z,15.21
2022-09-28T13:15:28.969Z,15.47
2022-09-28T13:20:19.562Z,15.6
2022-09-28T13:25:18.670Z,15.83
2022-09-28T13:30:19.214Z,16.08
2022-09-28T13:35:19.293Z,16.24
2022-09-28T13:40:14.778Z,16.39
2022-09-28T13:45:21.462Z,16.45
2022-09-28T13:50:25.482Z,16.66
2022-09-28T13:55:28.441Z,16.8
2022-09-28T14:00:25.196Z,16.95
2022-09-28T14:05:37.119Z,17.08
2022-09-28T14:10:40.874Z,17.21
2022-09-28T14:15:33.313Z,17.39
2022-09-28T14:20:19.653Z,17.56
2022-09-28T14:25:22.404Z,17.48
2022-09-28T14:30:21.329Z,17.32
2022-09-28T14:35:20.242Z,17.11
2022-09-28T14:40:31.901Z,16.95
2022-09-28T14:45:45.191Z,16.8
2022-09-28T14:50:28.372Z,16.67
2022-09-28T14:55:27.608Z,16.55
2022-09-28T15:00:26.121Z,16.44
2022-09-28T15:05:22.766Z,16.34
2022-09-28T15:10:27.752Z,16.28
2022-09-28T15:15:28.010Z,16.28
2022-09-28T15:20:24.858Z,16.31
2022-09-28T15:25:20.013Z,16.39
2022-09-28T15:30:27.655Z,16.41
2022-09-28T15:35:21.941Z,16.35
2022-09-28T15:40:21.627Z,16.22
2022-09-28T15:45:26.382Z,15.95
2022-09-28T15:50:25.585Z,15.72
2022-09-28T15:55:24.377Z,15.5
2022-09-28T16:00:25.731Z,15.34
2022-09-28T16:05:35.554Z,15.18
2022-09-28T16:10:25.580Z,15.04
2022-09-28T16:15:20.572Z,14.89
2022-09-28T16:20:26.487Z,14.76
2022-09-28T16:25:21.674Z,14.63
2022-09-28T16:30:25.622Z,14.52
2022-09-28T16:35:25.208Z,14.41
2022-09-28T16:40:16.169Z,14.29
2022-09-28T16:45:26.628Z,14.17
2022-09-28T16:50:14.816Z,14.05
2022-09-28T16:55:39.676Z,13.89
2022-09-28T17:00:20.872Z,13.76
2022-09-28T17:05:18.779Z,13.66
2022-09-28T17:10:19.499Z,13.54
2022-09-28T17:15:19.358Z,13.41
2022-09-28T17:20:20.085Z,13.28
2022-09-28T17:25:17.276Z,13.09
2022-09-28T17:30:15.231Z,12.98
2022-09-28T17:35:24.682Z,12.81
2022-09-28T17:40:21.803Z,12.67
2022-09-28T17:45:15.789Z,12.52
2022-09-28T17:50:21.621Z,12.38
2022-09-28T17:55:14.587Z,12.27
2022-09-28T18:00:15.010Z,12.1
2022-09-28T18:05:16.491Z,11.94
2022-09-28T18:10:19.740Z,11.77
2022-09-28T18:15:18.349Z,11.62
2022-09-28T18:20:17.106Z,11.46
2022-09-28T18:25:14.701Z,11.34
2022-09-28T18:30:18.861Z,11.23
2022-09-28T18:35:22.764Z,11.11
2022-09-28T18:40:16.919Z,11.02
2022-09-28T18:45:17.603Z,10.88
2022-09-28T18:50:15.254Z,10.76
2022-09-28T18:55:15.686Z,10.65
2022-09-28T19:00:15.890Z,10.55
2022-09-28T19:05:17.117Z,10.42
2022-09-28T19:10:20.962Z,10.33
2022-09-28T19:15:16.740Z,10.22
2022-09-28T19:20:17.211Z,10.13
2022-09-28T19:25:15.955Z,10
2022-09-28T19:30:15.655Z,9.86
2022-09-28T19:35:16.842Z,9.78
2022-09-28T19:40:14.706Z,9.64
2022-09-28T19:45:14.594Z,9.56
2022-09-28T19:50:15.419Z,9.45
2022-09-28T19:55:17.882Z,9.38
2022-09-28T20:00:19.676Z,9.28
2022-09-28T20:05:17.799Z,9.28
2022-09-28T20:10:18.056Z,9.18
2022-09-28T20:15:16.610Z,9.11
2022-09-28T20:20:14.377Z,9.06
2022-09-28T20:25:14.696Z,9
2022-09-28T20:30:19.114Z,8.91
2022-09-28T20:35:22.353Z,8.85
2022-09-28T20:40:18.885Z,8.78
2022-09-28T20:45:14.540Z,8.7
2022-09-28T20:50:19.946Z,8.7
2022-09-28T20:55:14.362Z,8.68
2022-09-28T21:00:15.119Z,8.65
2022-09-28T21:05:15.602Z,8.56
2022-09-28T21:10:17.587Z,8.48
2022-09-28T21:15:15.241Z,8.43
2022-09-28T21:20:14.746Z,8.36
2022-09-28T21:25:17.189Z,8.34
2022-09-28T21:30:19.818Z,8.25
2022-09-28T21:35:14.363Z,8.22
2022-09-28T21:40:15.250Z,8.14
2022-09-28T21:45:14.320Z,8.07
2022-09-28T21:50:17.579Z,7.98
2022-09-28T21:55:14.394Z,7.95
2022-09-28T22:00:18.810Z,7.83
2022-09-28T22:05:15.474Z,7.81
2022-09-28T22:10:16.551Z,7.82
2022-09-28T22:15:15.801Z,7.73
2022-09-28T22:20:14.503Z,7.72
2022-09-28T22:25:14.196Z,7.71
2022-09-28T22:30:19.241Z,7.67
2022-09-28T22:35:15.792Z,7.65
2022-09-28T22:40:14.989Z,7.66
2022-09-28T22:45:14.306Z,7.62
2022-09-28T22:50:14.412Z,7.63
2022-09-28T22:55:21.752Z,7.58
2022-09-28T23:00:14.692Z,7.53
2022-09-28T23:05:14.772Z,7.49
2022-09-28T23:10:14.476Z,7.42
2022-09-28T23:15:15.275Z,7.42
2022-09-28T23:20:17.300Z,7.43
2022-09-28T23:25:14.420Z,7.37
2022-09-28T23:30:17.595Z,7.37
2022-09-28T23:35:17.806Z,7.32
2022-09-28T23:40:16.808Z,7.31
2022-09-28T23:45:15.242Z,7.28
2022-09-28T23:50:17.518Z,7.26
2022-09-28T23:55:16.881Z,7.22
